createdAt,value
2018-04-19T00:02:19.190Z,12.56
2018-04-19T00:04:47.574Z,12.62
2018-04-19T00:07:15.986Z,12.73
2018-04-19T00:09:44.406Z,12.56
2018-04-19T00:12:12.810Z,12.50
2018-04-19T00:14:41.945Z,12.45
2018-04-19T00:17:10.355Z,12.38
2018-04-19T00:19:38.752Z,12.28
2018-04-19T00:22:07.135Z,12.23
2018-04-19T00:24:35.534Z,12.22
2018-04-19T00:27:04.677Z,12.21
2018-04-19T00:29:33.065Z,12.18
2018-04-19T00:32:01.451Z,12.15
2018-04-19T00:34:29.911Z,12.13
2018-04-19T00:36:58.274Z,12.08
2018-04-19T00:39:27.425Z,12.07
2018-04-19T00:41:55.827Z,12.11
2018-04-19T00:44:24.211Z,12.02
2018-04-19T00:46:52.662Z,12.12
2018-04-19T00:49:21.122Z,12.03
2018-04-19T00:51:49.510Z,12.06
2018-04-19T00:54:17.902Z,11.98
2018-04-19T00:56:46.314Z,12.06
2018-04-19T00:59:14.714Z,11.99
2018-04-19T01:01:43.110Z,12.13
2018-04-19T01:04:11.530Z,12.42
2018-04-19T01:06:39.903Z,12.38
2018-04-19T01:09:09.045Z,12.33
2018-04-19T01:11:38.213Z,12.21
2018-04-19T01:14:06.674Z,12.12
2018-04-19T01:16:35.913Z,12.04
2018-04-19T01:19:04.321Z,12.07
2018-04-19T01:21:32.701Z,11.86
2018-04-19T01:24:01.126Z,11.75
2018-04-19T01:26:30.342Z,11.68
2018-04-19T01:28:59.502Z,11.64
2018-04-19T01:31:27.892Z,11.58
2018-04-19T01:33:56.419Z,11.52
2018-04-19T01:36:27.821Z,11.47
2018-04-19T01:38:56.197Z,11.46
2018-04-19T01:41:24.606Z,11.43
2018-04-19T01:43:53.845Z,11.37
2018-04-19T01:46:23.065Z,11.37
2018-04-19T01:48:51.474Z,11.36
2018-04-19T01:51:20.653Z,11.37
2018-04-19T01:53:49.069Z,11.27
2018-04-19T01:56:18.258Z,11.30
2018-04-19T01:58:46.706Z,11.39
2018-04-19T02:01:15.104Z,11.44
2018-04-19T02:03:43.497Z,11.73
2018-04-19T02:06:11.885Z,11.53
2018-04-19T02:08:40.333Z,11.46
2018-04-19T02:11:08.743Z,11.37
2018-04-19T02:13:37.166Z,11.30
2018-04-19T02:16:05.571Z,11.22
2018-04-19T02:18:34.722Z,11.15
2018-04-19T02:21:03.123Z,11.10
2018-04-19T02:23:31.533Z,11.07
2018-04-19T02:26:00.691Z,11.05
2018-04-19T02:28:29.082Z,10.98
2018-04-19T02:30:57.514Z,10.93
2018-04-19T02:33:25.915Z,10.90
2018-04-19T02:35:54.363Z,10.88
2018-04-19T02:38:23.537Z,10.87
2018-04-19T02:40:51.927Z,10.94
2018-04-19T02:43:20.316Z,10.80
2018-04-19T02:45:48.736Z,10.78
2018-04-19T02:48:17.116Z,10.79
2018-04-19T02:50:45.555Z,10.85
2018-04-19T02:53:13.983Z,10.76
2018-04-19T02:55:43.180Z,10.69
2018-04-19T02:58:12.348Z,10.69
2018-04-19T03:00:40.798Z,10.68
2018-04-19T03:03:09.194Z,10.64
2018-04-19T03:05:37.580Z,10.61
2018-04-19T03:08:06.141Z,10.65
2018-04-19T03:10:34.536Z,10.67
2018-04-19T03:13:02.932Z,10.66
2018-04-19T03:15:31.317Z,10.64
2018-04-19T03:17:59.719Z,10.63
2018-04-19T03:20:28.128Z,10.62
2018-04-19T03:22:57.277Z,10.59
2018-04-19T03:25:26.445Z,10.55
2018-04-19T03:27:55.782Z,10.52
2018-04-19T03:30:24.214Z,10.49
2018-04-19T03:32:52.605Z,10.47
2018-04-19T03:35:21.770Z,10.40
2018-04-19T03:37:50.200Z,10.40
2018-04-19T03:40:18.613Z,10.42
2018-04-19T03:42:46.999Z,10.34
2018-04-19T03:45:16.238Z,10.36
2018-04-19T03:47:44.633Z,10.32
2018-04-19T03:50:13.774Z,10.33
2018-04-19T03:52:42.154Z,10.25
2018-04-19T03:55:10.599Z,10.28
2018-04-19T03:57:39.013Z,10.30
2018-04-19T04:00:07.390Z,10.34
2018-04-19T04:02:35.779Z,10.30
2018-04-19T04:05:04.152Z,10.33
2018-04-19T04:07:33.288Z,10.28
2018-04-19T04:10:01.696Z,10.25
2018-04-19T04:12:30.131Z,10.31
2018-04-19T04:14:58.539Z,10.30
2018-04-19T04:17:44.634Z,10.30
2018-04-19T04:20:30.741Z,10.33
2018-04-19T04:23:31.375Z,10.32
2018-04-19T04:25:59.773Z,10.32
2018-04-19T04:28:28.921Z,10.32
2018-04-19T04:30:57.317Z,10.33
2018-04-19T04:33:25.696Z,10.40
2018-04-19T04:35:54.139Z,10.46
2018-04-19T04:38:22.555Z,10.49
2018-04-19T04:40:50.972Z,10.53
2018-04-19T04:43:19.461Z,10.61
2018-04-19T04:45:48.650Z,10.65
2018-04-19T04:48:17.042Z,10.74
2018-04-19T04:50:45.454Z,10.84
2018-04-19T04:53:13.956Z,10.97
2018-04-19T04:55:42.366Z,11.15
2018-04-19T04:58:10.826Z,11.39
2018-04-19T05:00:39.211Z,11.56
2018-04-19T05:03:07.653Z,11.76
2018-04-19T05:05:36.857Z,12.05
2018-04-19T05:08:06.025Z,12.21
2018-04-19T05:10:34.469Z,12.49
2018-04-19T05:13:02.890Z,12.99
2018-04-19T05:15:32.040Z,13.12
2018-04-19T05:18:00.454Z,13.27
2018-04-19T05:20:28.850Z,13.47
2018-04-19T05:22:57.238Z,13.48
2018-04-19T05:25:25.696Z,13.58
2018-04-19T05:27:54.109Z,13.68
2018-04-19T05:30:23.361Z,13.98
2018-04-19T05:32:52.513Z,14.07
2018-04-19T05:35:20.925Z,14.32
2018-04-19T05:37:49.321Z,14.56
2018-04-19T05:40:18.474Z,14.91
2018-04-19T05:42:46.892Z,15.15
2018-04-19T05:45:15.293Z,15.37
2018-04-19T05:47:44.511Z,15.45
2018-04-19T05:50:12.980Z,15.59
2018-04-19T05:52:42.153Z,15.61
2018-04-19T05:55:10.538Z,15.73
2018-04-19T05:57:38.989Z,15.86
2018-04-19T06:00:07.367Z,16.01
2018-04-19T06:02:35.775Z,16.12
2018-04-19T06:05:04.241Z,16.41
2018-04-19T06:07:32.717Z,16.67
2018-04-19T06:10:01.109Z,16.79
2018-04-19T06:12:29.486Z,17.03
2018-04-19T06:14:57.865Z,17.30
2018-04-19T06:17:26.277Z,17.46
2018-04-19T06:19:55.402Z,17.87
2018-04-19T06:22:23.833Z,18.35
2018-04-19T06:24:52.206Z,18.92
2018-04-19T06:27:20.614Z,19.18
2018-04-19T06:29:49.773Z,19.71
2018-04-19T06:32:19.143Z,20.20
2018-04-19T06:34:47.524Z,20.44
2018-04-19T06:37:15.938Z,20.79
2018-04-19T06:39:45.071Z,21.10
2018-04-19T06:42:13.470Z,21.42
2018-04-19T06:44:41.850Z,23.05
2018-04-19T06:47:10.227Z,22.78
2018-04-19T06:49:38.669Z,22.86
2018-04-19T06:52:07.837Z,23.32
2018-04-19T06:54:36.217Z,24.43
2018-04-19T06:57:04.606Z,24.18
2018-04-19T06:59:33.025Z,24.58
2018-04-19T07:02:02.186Z,25.58
2018-04-19T07:04:30.582Z,26.00
2018-04-19T07:06:58.963Z,26.51
2018-04-19T07:09:27.347Z,26.74
2018-04-19T07:11:55.738Z,26.41
2018-04-19T07:14:24.107Z,26.89
2018-04-19T07:16:52.548Z,26.59
2018-04-19T07:19:20.922Z,26.83
2018-04-19T07:21:49.313Z,26.46
2018-04-19T07:24:17.698Z,25.38
2018-04-19T07:26:46.093Z,26.52
2018-04-19T07:29:14.478Z,27.72
2018-04-19T07:31:42.874Z,28.75
2018-04-19T07:34:11.253Z,26.50
2018-04-19T07:36:39.677Z,27.70
2018-04-19T07:39:08.082Z,27.50
2018-04-19T07:41:36.474Z,27.90
2018-04-19T07:44:04.874Z,27.46
2018-04-19T07:46:33.243Z,28.86
2018-04-19T07:49:01.611Z,29.72
2018-04-19T07:51:30.889Z,28.68
2018-04-19T07:53:59.258Z,30.09
2018-04-19T07:56:27.661Z,29.36
2018-04-19T07:58:56.044Z,29.59
2018-04-19T08:01:24.442Z,31.38
2018-04-19T08:03:53.634Z,30.37
2018-04-19T08:06:22.042Z,31.35
2018-04-19T08:08:50.421Z,31.34
2018-04-19T08:11:18.890Z,29.99
2018-04-19T08:13:47.250Z,30.51
2018-04-19T08:16:15.646Z,30.79
2018-04-19T08:18:44.046Z,30.71
2018-04-19T08:21:13.219Z,31.13
2018-04-19T08:23:41.595Z,31.19
2018-04-19T08:26:09.991Z,31.16
2018-04-19T08:28:38.382Z,31.02
2018-04-19T08:31:06.809Z,31.37
2018-04-19T08:33:35.183Z,31.56
2018-04-19T08:36:04.345Z,31.88
2018-04-19T08:38:32.726Z,32.04
2018-04-19T08:41:01.109Z,30.96
2018-04-19T08:43:29.509Z,32.58
2018-04-19T08:45:58.657Z,31.79
2018-04-19T08:48:27.029Z,30.94
2018-04-19T08:50:55.401Z,31.85
2018-04-19T08:53:23.804Z,32.19
2018-04-19T08:55:52.173Z,31.53
2018-04-19T08:58:20.606Z,33.04
2018-04-19T09:00:48.979Z,32.43
2018-04-19T09:03:17.375Z,33.11
2018-04-19T09:05:45.782Z,33.93
2018-04-19T09:08:14.928Z,33.10
2018-04-19T09:10:43.357Z,33.49
2018-04-19T09:13:12.621Z,33.61
2018-04-19T09:15:40.999Z,33.00
2018-04-19T09:18:09.387Z,31.59
2018-04-19T09:20:37.785Z,32.06
2018-04-19T09:23:06.404Z,32.83
2018-04-19T09:25:34.702Z,32.23
2018-04-19T09:28:03.128Z,32.39
2018-04-19T09:30:31.553Z,32.90
2018-04-19T09:33:00.711Z,33.01
2018-04-19T09:35:29.096Z,31.03
2018-04-19T09:37:57.485Z,32.20
2018-04-19T09:40:25.876Z,32.27
2018-04-19T09:42:54.276Z,30.72
2018-04-19T09:45:23.465Z,32.64
2018-04-19T09:47:51.834Z,32.62
2018-04-19T09:50:20.203Z,32.41
2018-04-19T09:52:48.597Z,32.82
2018-04-19T09:55:16.972Z,32.64
2018-04-19T10:00:48.667Z,33.86
2018-04-19T10:03:18.846Z,33.46
2018-04-19T10:05:48.122Z,34.07
2018-04-19T10:08:16.506Z,34.11
2018-04-19T10:10:45.642Z,33.23
2018-04-19T10:13:14.016Z,32.71
2018-04-19T10:15:42.487Z,34.62
2018-04-19T10:18:10.862Z,34.36
2018-04-19T10:20:39.222Z,34.57
2018-04-19T10:23:08.373Z,34.47
2018-04-19T10:25:36.746Z,33.54
2018-04-19T10:28:05.130Z,33.74
2018-04-19T10:30:33.509Z,33.63
2018-04-19T10:33:01.925Z,33.29
2018-04-19T10:35:30.301Z,33.23
2018-04-19T10:37:58.841Z,33.09
2018-04-19T10:40:27.986Z,32.93
2018-04-19T10:42:56.398Z,32.78
2018-04-19T10:45:24.762Z,33.28
2018-04-19T10:47:53.141Z,32.76
2018-04-19T10:50:21.538Z,33.74
2018-04-19T10:52:49.940Z,33.79
2018-04-19T10:55:18.305Z,33.89
2018-04-19T10:57:46.695Z,33.89
2018-04-19T11:00:15.153Z,33.89
2018-04-19T11:02:43.530Z,34.55
2018-04-19T11:05:11.942Z,33.23
2018-04-19T11:07:41.874Z,33.08
2018-04-19T11:10:10.290Z,33.02
2018-04-19T11:12:38.736Z,32.16
2018-04-19T11:15:07.106Z,32.80
2018-04-19T11:17:35.502Z,33.31
2018-04-19T11:20:03.883Z,33.31
2018-04-19T11:22:33.287Z,32.61
2018-04-19T11:25:01.638Z,32.02
2018-04-19T11:27:29.998Z,32.44
2018-04-19T11:29:58.410Z,32.11
2018-04-19T11:32:26.795Z,32.37
2018-04-19T11:34:55.182Z,32.25
2018-04-19T11:37:23.589Z,32.75
2018-04-19T11:39:52.758Z,33.08
2018-04-19T11:42:21.133Z,32.80
2018-04-19T11:44:49.536Z,32.69
2018-04-19T11:47:18.110Z,32.73
2018-04-19T11:49:46.499Z,32.25
2018-04-19T11:52:14.929Z,32.36
2018-04-19T11:54:44.072Z,32.31
2018-04-19T11:57:12.454Z,32.43
2018-04-19T11:59:40.862Z,32.64
2018-04-19T12:02:09.265Z,32.44
2018-04-19T12:04:37.685Z,32.45
2018-04-19T12:07:06.073Z,32.71
2018-04-19T12:09:34.455Z,33.12
2018-04-19T12:12:02.843Z,32.74
2018-04-19T12:14:31.224Z,32.12
2018-04-19T12:16:59.613Z,32.03
2018-04-19T12:19:28.094Z,32.63
2018-04-19T12:21:56.493Z,32.75
2018-04-19T12:24:24.929Z,33.06
2018-04-19T12:26:53.362Z,32.99
2018-04-19T12:29:21.769Z,32.58
2018-04-19T12:31:50.209Z,32.69
2018-04-19T12:34:18.638Z,32.73
2018-04-19T12:36:47.021Z,32.67
2018-04-19T12:39:15.420Z,32.50
2018-04-19T12:41:43.794Z,32.90
2018-04-19T12:44:12.198Z,32.98
2018-04-19T12:46:41.340Z,32.72
2018-04-19T12:49:09.735Z,32.47
2018-04-19T12:51:38.156Z,32.88
2018-04-19T12:54:06.527Z,32.60
2018-04-19T12:56:34.978Z,32.29
2018-04-19T12:59:03.364Z,32.27
2018-04-19T13:01:31.800Z,32.72
2018-04-19T13:04:00.178Z,32.55
2018-04-19T13:06:29.375Z,33.01
2018-04-19T13:08:57.764Z,33.36
2018-04-19T13:11:26.132Z,33.64
2018-04-19T13:13:54.662Z,33.96
2018-04-19T13:16:23.137Z,32.99
2018-04-19T13:18:51.533Z,32.70
2018-04-19T13:21:20.009Z,33.52
2018-04-19T13:23:49.192Z,33.64
2018-04-19T13:26:17.561Z,33.87
2018-04-19T13:28:45.947Z,33.33
2018-04-19T13:31:14.338Z,33.65
2018-04-19T13:33:42.718Z,33.42
2018-04-19T13:36:11.909Z,33.78
2018-04-19T13:38:40.289Z,33.02
2018-04-19T13:41:08.690Z,34.30
2018-04-19T13:43:37.083Z,33.93
2018-04-19T13:46:06.307Z,33.80
2018-04-19T13:48:34.687Z,34.18
2018-04-19T13:51:03.086Z,34.49
2018-04-19T13:53:31.504Z,34.46
2018-04-19T13:55:59.882Z,33.93
2018-04-19T13:58:28.274Z,34.14
2018-04-19T14:00:56.642Z,33.94
2018-04-19T14:03:25.052Z,34.03
2018-04-19T14:05:53.490Z,34.38
2018-04-19T14:08:22.610Z,34.99
2018-04-19T14:10:51.018Z,34.09
2018-04-19T14:13:19.402Z,34.36
2018-04-19T14:15:47.811Z,34.22
2018-04-19T14:18:16.965Z,35.29
2018-04-19T14:20:45.545Z,35.07
2018-04-19T14:23:13.954Z,34.76
2018-04-19T14:25:42.346Z,34.67
2018-04-19T14:28:10.778Z,34.29
2018-04-19T14:30:39.173Z,35.13
2018-04-19T14:33:07.572Z,35.53
2018-04-19T14:35:35.951Z,34.96
2018-04-19T14:38:04.400Z,34.44
2018-04-19T14:40:32.825Z,34.45
2018-04-19T14:43:01.250Z,35.16
2018-04-19T14:45:30.395Z,34.94
2018-04-19T14:47:58.777Z,34.84
2018-04-19T14:50:27.270Z,34.96
2018-04-19T14:52:55.663Z,35.92
2018-04-19T14:55:24.867Z,34.53
2018-04-19T14:57:53.230Z,36.13
2018-04-19T15:00:21.634Z,36.43
2018-04-19T15:02:50.012Z,36.66
2018-04-19T15:05:18.460Z,35.90
2018-04-19T15:07:46.958Z,35.46
2018-04-19T15:10:15.347Z,34.37
2018-04-19T15:12:43.733Z,33.86
2018-04-19T15:15:12.114Z,35.38
2018-04-19T15:17:40.558Z,35.12
2018-04-19T15:20:09.713Z,35.37
2018-04-19T15:22:38.117Z,34.25
2018-04-19T15:25:06.513Z,34.67
2018-04-19T15:27:35.691Z,33.40
2018-04-19T15:30:04.078Z,33.71
2018-04-19T15:32:32.467Z,33.25
2018-04-19T15:35:00.859Z,32.29
2018-04-19T15:37:29.268Z,32.86
2018-04-19T15:39:57.745Z,33.06
2018-04-19T15:42:27.035Z,33.76
2018-04-19T15:44:56.191Z,33.26
2018-04-19T15:47:24.704Z,34.07
2018-04-19T15:49:53.115Z,33.86
2018-04-19T15:52:22.342Z,34.17
2018-04-19T15:54:50.726Z,33.90
2018-04-19T15:57:19.106Z,33.95
2018-04-19T15:59:47.486Z,33.72
2018-04-19T16:02:15.915Z,33.96
2018-04-19T16:04:44.362Z,33.90
2018-04-19T16:07:12.737Z,33.52
2018-04-19T16:09:41.127Z,33.59
2018-04-19T16:12:09.527Z,33.28
2018-04-19T16:14:37.933Z,32.94
2018-04-19T16:17:06.384Z,33.92
2018-04-19T16:19:35.654Z,33.31
2018-04-19T16:22:04.850Z,33.23
2018-04-19T16:24:33.227Z,31.84
2018-04-19T16:27:01.654Z,32.34
2018-04-19T16:29:30.810Z,32.31
2018-04-19T16:31:59.186Z,31.52
2018-04-19T16:34:27.624Z,31.75
2018-04-19T16:36:56.809Z,31.50
2018-04-19T16:39:25.958Z,31.37
2018-04-19T16:41:54.349Z,31.03
2018-04-19T16:44:22.749Z,30.38
2018-04-19T16:46:51.181Z,29.93
2018-04-19T16:49:19.605Z,29.34
2018-04-19T16:51:47.984Z,29.39
2018-04-19T16:54:16.366Z,28.83
2018-04-19T16:56:44.761Z,28.47
2018-04-19T16:59:13.149Z,28.56
2018-04-19T17:01:41.543Z,28.49
2018-04-19T17:04:10.766Z,28.21
2018-04-19T17:06:39.138Z,28.18
2018-04-19T17:09:08.301Z,27.93
2018-04-19T17:11:36.849Z,28.20
2018-04-19T17:14:05.253Z,28.17
2018-04-19T17:16:34.425Z,28.10
2018-04-19T17:19:02.824Z,27.97
2018-04-19T17:21:31.202Z,27.87
2018-04-19T17:23:59.584Z,27.69
2018-04-19T17:26:28.027Z,27.69
2018-04-19T17:28:56.418Z,27.64
2018-04-19T17:31:25.588Z,27.49
2018-04-19T17:33:53.958Z,27.32
2018-04-19T17:36:22.350Z,27.24
2018-04-19T17:38:50.694Z,27.01
2018-04-19T17:41:19.077Z,26.93
2018-04-19T17:43:47.477Z,26.90
2018-04-19T17:46:15.894Z,26.72
2018-04-19T17:48:44.329Z,26.63
2018-04-19T17:51:12.716Z,26.34
2018-04-19T17:53:41.129Z,26.07
2018-04-19T17:56:09.502Z,25.83
2018-04-19T17:58:37.865Z,25.68
2018-04-19T18:01:06.249Z,25.41
2018-04-19T18:03:34.640Z,25.15
2018-04-19T18:06:03.092Z,25.03
2018-04-19T18:08:32.259Z,24.83
2018-04-19T18:11:00.638Z,24.64
2018-04-19T18:13:29.018Z,24.41
2018-04-19T18:15:57.413Z,24.27
2018-04-19T18:18:25.811Z,24.15
2018-04-19T18:20:54.210Z,23.86
2018-04-19T18:23:23.364Z,23.65
2018-04-19T18:25:51.842Z,23.48
2018-04-19T18:28:20.331Z,23.26
2018-04-19T18:30:49.444Z,23.02
2018-04-19T18:33:18.621Z,22.83
2018-04-19T18:35:47.778Z,22.58
2018-04-19T18:38:16.927Z,22.33
2018-04-19T18:40:45.342Z,22.16
2018-04-19T18:43:13.741Z,21.92
2018-04-19T18:45:42.154Z,21.74
2018-04-19T18:48:10.770Z,21.58
2018-04-19T18:50:39.179Z,21.46
2018-04-19T18:53:07.584Z,21.29
2018-04-19T18:55:36.747Z,21.17
2018-04-19T18:58:05.178Z,21.01
2018-04-19T19:00:34.343Z,20.87
2018-04-19T19:03:02.762Z,20.77
2018-04-19T19:05:31.981Z,20.68
2018-04-19T19:08:00.374Z,20.64
2018-04-19T19:10:28.790Z,20.56
2018-04-19T19:12:57.272Z,20.56
2018-04-19T19:19:10.054Z,20.41
2018-04-19T19:21:39.172Z,20.42
2018-04-19T19:24:07.632Z,20.49
2018-04-19T19:26:36.035Z,20.54
2018-04-19T19:29:04.414Z,20.59
2018-04-19T19:31:32.847Z,20.43
2018-04-19T19:34:02.220Z,20.32
2018-04-19T19:36:30.608Z,20.32
2018-04-19T19:38:58.999Z,20.14
2018-04-19T19:41:27.423Z,20.10
2018-04-19T19:43:55.807Z,20.01
2018-04-19T19:46:24.197Z,19.80
2018-04-19T19:48:52.685Z,19.62
2018-04-19T19:51:21.085Z,19.52
2018-04-19T19:53:49.473Z,19.44
2018-04-19T19:56:17.849Z,19.43
2018-04-19T19:58:46.257Z,19.37
2018-04-19T20:01:14.686Z,19.40
2018-04-19T20:03:43.819Z,19.38
2018-04-19T20:06:12.238Z,19.35
2018-04-19T20:08:41.407Z,19.35
2018-04-19T20:11:09.830Z,19.22
2018-04-19T20:13:38.210Z,19.14
2018-04-19T20:16:06.608Z,19.18
2018-04-19T20:18:35.761Z,19.12
2018-04-19T20:21:04.217Z,19.13
2018-04-19T20:23:32.613Z,19.15
2018-04-19T20:26:01.005Z,19.04
2018-04-19T20:28:29.404Z,19.08
2018-04-19T20:30:57.810Z,19.12
2018-04-19T20:33:27.078Z,19.09
2018-04-19T20:35:55.486Z,19.11
2018-04-19T20:38:23.871Z,18.85
2018-04-19T20:40:52.290Z,18.71
2018-04-19T20:43:20.702Z,18.65
2018-04-19T20:45:49.090Z,18.57
2018-04-19T20:48:17.543Z,18.50
2018-04-19T20:50:46.019Z,18.34
2018-04-19T20:53:15.167Z,18.17
2018-04-19T20:55:43.595Z,18.21
2018-04-19T20:58:12.766Z,18.19
2018-04-19T21:00:41.161Z,18.16
2018-04-19T21:03:09.589Z,18.19
2018-04-19T21:05:37.987Z,18.10
2018-04-19T21:08:06.423Z,17.96
2018-04-19T21:10:34.833Z,17.79
2018-04-19T21:13:03.211Z,17.77
2018-04-19T21:15:32.388Z,17.76
2018-04-19T21:18:00.817Z,17.70
2018-04-19T21:20:29.226Z,17.75
2018-04-19T21:22:58.435Z,17.84
2018-04-19T21:25:26.924Z,17.78
2018-04-19T21:27:55.323Z,17.59
2018-04-19T21:30:23.717Z,17.51
2018-04-19T21:32:52.106Z,17.47
2018-04-19T21:35:21.306Z,17.37
2018-04-19T21:37:50.473Z,17.34
2018-04-19T21:40:18.853Z,17.24
2018-04-19T21:42:47.307Z,17.18
2018-04-19T21:45:15.889Z,17.18
2018-04-19T21:47:44.294Z,17.18
2018-04-19T21:50:13.519Z,17.32
2018-04-19T21:52:41.914Z,17.17
2018-04-19T21:55:10.342Z,17.05
2018-04-19T21:57:38.717Z,16.92
2018-04-19T22:00:07.094Z,16.79
2018-04-19T22:02:36.245Z,16.77
2018-04-19T22:05:05.415Z,16.64
2018-04-19T22:07:33.825Z,16.48
2018-04-19T22:10:02.227Z,16.32
2018-04-19T22:12:30.594Z,16.16
2018-04-19T22:14:59.062Z,16.14
2018-04-19T22:17:27.446Z,15.98
2018-04-19T22:19:55.847Z,15.92
2018-04-19T22:22:24.258Z,15.75
2018-04-19T22:24:52.691Z,15.69
2018-04-19T22:27:21.117Z,15.56
2018-04-19T22:29:49.514Z,15.49
2018-04-19T22:32:17.888Z,15.44
2018-04-19T22:34:46.355Z,15.33
2018-04-19T22:37:14.962Z,15.30
2018-04-19T22:39:43.543Z,15.19
2018-04-19T22:42:11.932Z,15.10
2018-04-19T22:44:40.294Z,15.09
2018-04-19T22:47:08.707Z,15.30
2018-04-19T22:49:37.845Z,15.21
2018-04-19T22:52:06.273Z,15.17
2018-04-19T22:54:34.681Z,15.10
2018-04-19T22:57:03.849Z,15.04
2018-04-19T22:59:32.269Z,14.94
2018-04-19T23:02:01.417Z,14.94
2018-04-19T23:04:29.804Z,14.92
2018-04-19T23:06:58.278Z,14.80
2018-04-19T23:09:26.673Z,14.75
2018-04-19T23:11:55.044Z,14.65
2018-04-19T23:14:23.465Z,14.63
2018-04-19T23:16:51.850Z,14.61
2018-04-19T23:19:20.227Z,14.54
2018-04-19T23:21:48.614Z,14.58
2018-04-19T23:24:17.006Z,14.51
2018-04-19T23:26:45.417Z,14.51
2018-04-19T23:29:14.575Z,14.47
2018-04-19T23:31:42.963Z,14.34
2018-04-19T23:34:11.342Z,14.28
2018-04-19T23:36:39.731Z,14.21
2018-04-19T23:39:08.267Z,14.18
2018-04-19T23:41:36.638Z,14.16
2018-04-19T23:44:05.050Z,14.07
2018-04-19T23:46:33.423Z,14.01
2018-04-19T23:49:01.804Z,13.99
2018-04-19T23:51:30.181Z,13.96
2018-04-19T23:53:59.516Z,13.88
2018-04-19T23:56:27.885Z,13.84
2018-04-19T23:58:56.277Z,13.81
